createdAt,value
2022-10-19T00:00:11.432Z,102.07
2022-10-19T00:02:45.606Z,102.47
2022-10-19T00:05:22.141Z,98.40
2022-10-19T00:07:57.451Z,91.30
2022-10-19T00:10:32.536Z,82.67
2022-10-19T00:13:06.992Z,91.23
2022-10-19T00:15:44.611Z,78.97
2022-10-19T00:18:18.763Z,99.27
2022-10-19T00:21:05.672Z,102.77
2022-10-19T00:23:40.444Z,101.90
2022-10-19T00:26:15.268Z,99.43
2022-10-19T00:28:50.168Z,98.00
2022-10-19T00:31:24.808Z,86.93
2022-10-19T00:34:11.516Z,81.30
2022-10-19T00:36:48.312Z,106.77
2022-10-19T00:39:23.435Z,91.47
2022-10-19T00:41:57.065Z,99.20
2022-10-19T00:45:08.234Z,79.17
2022-10-19T00:47:43.288Z,93.77
2022-10-19T00:50:18.723Z,84.30
2022-10-19T00:52:55.463Z,70.90
2022-10-19T00:55:30.373Z,68.70
2022-10-19T00:58:07.661Z,84.03
2022-10-19T01:00:43.351Z,90.50
2022-10-19T01:03:19.524Z,95.93
2022-10-19T01:06:01.079Z,99.17
2022-10-19T01:08:37.995Z,99.43
2022-10-19T01:11:41.884Z,99.53
2022-10-19T01:14:34.546Z,92.63
2022-10-19T01:17:14.100Z,92.77
2022-10-19T01:20:49.230Z,93.13
2022-10-19T01:23:53.192Z,86.80
2022-10-19T01:26:50.759Z,78.47
2022-10-19T01:29:41.815Z,75.43
2022-10-19T01:32:26.534Z,76.20
2022-10-19T01:35:17.157Z,74.30
2022-10-19T01:37:55.567Z,68.53
2022-10-19T01:40:38.662Z,67.53
2022-10-19T01:43:23.154Z,66.63
2022-10-19T01:46:08.623Z,66.30
2022-10-19T01:48:57.120Z,64.40
2022-10-19T01:51:39.106Z,64.80
2022-10-19T01:54:22.785Z,64.57
2022-10-19T01:57:05.036Z,60.93
2022-10-19T01:59:46.116Z,62.20
2022-10-19T02:02:29.651Z,61.10
2022-10-19T02:05:12.902Z,61.70
2022-10-19T02:07:54.288Z,65.27
2022-10-19T02:10:32.216Z,64.13
2022-10-19T02:13:07.558Z,64.40
2022-10-19T02:15:44.997Z,68.97
2022-10-19T02:18:22.826Z,73.30
2022-10-19T02:21:01.576Z,81.60
2022-10-19T02:23:51.896Z,79.63
2022-10-19T02:26:33.472Z,80.37
2022-10-19T02:29:07.297Z,78.27
2022-10-19T02:31:43.128Z,81.60
2022-10-19T02:34:18.432Z,82.47
2022-10-19T02:37:02.322Z,85.00
2022-10-19T02:39:38.474Z,85.70
2022-10-19T02:42:20.864Z,95.63
2022-10-19T02:45:02.626Z,120.20
2022-10-19T02:47:39.207Z,119.27
2022-10-19T02:50:14.926Z,121.37
2022-10-19T02:52:58.741Z,146.90
2022-10-19T02:55:34.719Z,147.70
2022-10-19T02:58:13.313Z,143.93
2022-10-19T03:00:54.572Z,145.23
2022-10-19T03:03:33.309Z,151.50
2022-10-19T03:06:08.670Z,155.60
2022-10-19T03:08:45.097Z,152.17
2022-10-19T03:11:23.648Z,162.57
2022-10-19T03:13:59.140Z,162.30
2022-10-19T03:16:39.801Z,160.20
2022-10-19T03:19:16.728Z,150.97
2022-10-19T03:21:53.562Z,150.73
2022-10-19T03:24:41.264Z,158.67
2022-10-19T03:27:21.398Z,141.90
2022-10-19T03:29:55.479Z,148.27
2022-10-19T03:32:37.722Z,159.10
2022-10-19T03:35:14.460Z,148.80
2022-10-19T03:37:48.482Z,154.70
2022-10-19T03:40:33.485Z,152.27
2022-10-19T03:43:08.300Z,145.43
2022-10-19T03:45:42.950Z,136.50
2022-10-19T03:48:18.012Z,132.43
2022-10-19T03:50:56.185Z,137.77
2022-10-19T03:53:36.290Z,132.70
2022-10-19T03:56:20.662Z,132.43
2022-10-19T03:58:57.767Z,133.40
2022-10-19T04:01:43.262Z,138.97
2022-10-19T04:04:23.473Z,139.77
2022-10-19T04:07:00.362Z,146.43
2022-10-19T04:09:41.101Z,146.20
2022-10-19T04:12:25.419Z,152.47
2022-10-19T04:15:02.073Z,147.53
2022-10-19T04:17:36.723Z,147.77
2022-10-19T04:20:17.962Z,150.53
2022-10-19T04:23:08.135Z,153.00
2022-10-19T04:25:48.527Z,141.93
2022-10-19T04:28:35.310Z,145.17
2022-10-19T04:31:11.549Z,143.40
2022-10-19T04:36:31.813Z,140.73
2022-10-19T04:39:29.446Z,142.50
2022-10-19T04:42:06.564Z,133.83
2022-10-19T04:45:01.561Z,137.93
2022-10-19T04:47:37.387Z,137.80
2022-10-19T04:50:18.189Z,138.00
2022-10-19T04:52:54.758Z,139.70
2022-10-19T04:55:39.152Z,134.27
2022-10-19T04:58:15.385Z,133.37
2022-10-19T05:00:59.998Z,132.17
2022-10-19T05:03:38.455Z,125.90
2022-10-19T05:06:21.089Z,121.47
2022-10-19T05:08:55.468Z,124.47
2022-10-19T05:11:32.548Z,125.67
2022-10-19T05:14:14.375Z,124.60
2022-10-19T05:16:52.793Z,127.80
2022-10-19T05:19:28.615Z,122.50
2022-10-19T05:22:06.711Z,123.30
2022-10-19T05:24:41.174Z,118.30
2022-10-19T05:27:15.124Z,118.47
2022-10-19T05:29:57.682Z,117.40
2022-10-19T05:32:36.694Z,112.73
2022-10-19T05:35:21.498Z,116.60
2022-10-19T05:38:06.914Z,110.67
2022-10-19T05:40:41.005Z,104.60
2022-10-19T05:43:17.688Z,113.27
2022-10-19T05:45:55.567Z,108.13
2022-10-19T05:48:35.436Z,107.73
2022-10-19T05:51:12.112Z,103.80
2022-10-19T05:53:53.027Z,106.90
2022-10-19T05:56:29.739Z,104.73
2022-10-19T05:59:14.275Z,97.40
2022-10-19T06:01:48.727Z,98.47
2022-10-19T06:04:25.349Z,102.57
2022-10-19T06:07:00.940Z,101.17
2022-10-19T06:09:38.216Z,106.63
2022-10-19T06:12:24.258Z,107.23
2022-10-19T06:15:03.785Z,107.70
2022-10-19T06:17:37.893Z,110.43
2022-10-19T06:20:16.248Z,109.27
2022-10-19T06:22:51.275Z,98.10
2022-10-19T06:25:25.477Z,100.67
2022-10-19T06:28:25.183Z,103.53
2022-10-19T06:31:01.095Z,103.77
2022-10-19T06:33:38.555Z,98.27
2022-10-19T06:36:19.795Z,100.80
2022-10-19T06:38:57.973Z,95.40
2022-10-19T06:41:33.938Z,103.17
2022-10-19T06:44:26.671Z,101.43
2022-10-19T06:47:01.230Z,98.53
2022-10-19T06:49:37.252Z,98.33
2022-10-19T06:52:16.737Z,98.20
2022-10-19T06:54:53.450Z,98.23
2022-10-19T06:57:33.206Z,100.87
2022-10-19T07:00:13.427Z,99.20
2022-10-19T07:02:48.920Z,99.80
2022-10-19T07:05:27.151Z,98.87
2022-10-19T07:08:13.537Z,100.93
2022-10-19T07:11:01.335Z,95.80
2022-10-19T07:13:39.996Z,97.97
2022-10-19T07:16:21.168Z,98.87
2022-10-19T07:18:58.624Z,98.97
2022-10-19T07:21:32.858Z,102.23
2022-10-19T07:24:08.529Z,111.37
2022-10-19T07:26:43.817Z,107.07
2022-10-19T07:29:18.911Z,110.43
2022-10-19T07:32:04.691Z,111.03
2022-10-19T07:34:39.255Z,107.50
2022-10-19T07:37:14.747Z,105.57
2022-10-19T07:39:49.997Z,109.43
2022-10-19T07:42:26.490Z,101.63
2022-10-19T07:45:00.661Z,101.10
2022-10-19T07:47:35.258Z,96.17
2022-10-19T07:50:14.244Z,99.47
2022-10-19T07:52:49.322Z,99.27
2022-10-19T07:55:33.155Z,95.43
2022-10-19T07:58:10.368Z,93.70
2022-10-19T08:00:53.862Z,90.60
2022-10-19T08:04:14.227Z,87.63
2022-10-19T08:06:26.738Z,87.53
2022-10-19T08:09:11.315Z,85.03
2022-10-19T08:11:55.560Z,87.70
2022-10-19T08:14:29.589Z,90.50
2022-10-19T08:17:12.795Z,89.23
2022-10-19T08:19:51.519Z,86.90
2022-10-19T08:22:24.913Z,84.30
2022-10-19T08:25:03.282Z,85.97
2022-10-19T08:27:42.281Z,83.70
2022-10-19T08:30:19.009Z,91.27
2022-10-19T08:32:54.531Z,90.90
2022-10-19T08:35:31.781Z,87.10
2022-10-19T08:38:10.931Z,89.10
2022-10-19T08:40:51.604Z,86.03
2022-10-19T08:43:42.957Z,87.83
2022-10-19T08:46:26.086Z,82.70
2022-10-19T08:49:03.198Z,82.47
2022-10-19T08:51:43.117Z,80.17
2022-10-19T08:54:21.993Z,79.60
2022-10-19T08:57:09.335Z,80.10
2022-10-19T08:59:50.925Z,76.97
2022-10-19T09:02:38.816Z,75.37
2022-10-19T09:05:25.018Z,76.40
2022-10-19T09:08:01.523Z,76.40
2022-10-19T09:10:39.496Z,74.60
2022-10-19T09:13:21.248Z,77.23
2022-10-19T09:16:04.490Z,76.60
2022-10-19T09:18:43.656Z,74.53
2022-10-19T09:21:30.157Z,72.63
2022-10-19T09:24:20.190Z,73.13
2022-10-19T09:27:00.534Z,73.23
2022-10-19T09:29:44.470Z,72.83
2022-10-19T09:32:26.288Z,67.70
2022-10-19T09:35:05.184Z,65.83
2022-10-19T09:37:45.938Z,63.27
2022-10-19T09:40:27.658Z,60.23
2022-10-19T09:43:21.701Z,59.40
2022-10-19T09:46:16.453Z,57.50
2022-10-19T09:48:58.662Z,58.93
2022-10-19T09:51:51.634Z,59.37
2022-10-19T09:54:42.216Z,59.93
2022-10-19T09:57:33.514Z,57.40
2022-10-19T10:00:08.705Z,60.10
2022-10-19T10:02:49.648Z,60.63
2022-10-19T10:05:37.153Z,59.97
2022-10-19T10:08:22.484Z,58.90
2022-10-19T10:11:03.632Z,58.10
2022-10-19T10:13:46.808Z,91.77
2022-10-19T10:16:24.628Z,101.40
2022-10-19T10:19:03.324Z,101.43
2022-10-19T10:21:51.299Z,102.40
2022-10-19T10:24:32.406Z,110.13
2022-10-19T10:27:15.826Z,115.97
2022-10-19T10:30:01.940Z,115.93
2022-10-19T10:32:43.298Z,120.37
2022-10-19T10:35:23.809Z,118.90
2022-10-19T10:38:11.649Z,119.07
2022-10-19T10:40:53.656Z,119.20
2022-10-19T10:43:35.085Z,120.50
2022-10-19T10:46:12.495Z,119.43
2022-10-19T10:48:53.320Z,121.73
2022-10-19T10:51:35.920Z,123.73
2022-10-19T10:54:22.254Z,122.00
2022-10-19T10:57:19.577Z,119.10
2022-10-19T11:00:09.522Z,124.20
2022-10-19T11:02:52.887Z,125.57
2022-10-19T11:05:31.323Z,120.37
2022-10-19T11:08:20.820Z,122.67
2022-10-19T11:11:04.227Z,123.83
2022-10-19T11:13:44.070Z,126.23
2022-10-19T11:16:21.232Z,122.20
2022-10-19T11:19:01.852Z,125.20
2022-10-19T11:21:44.123Z,124.03
2022-10-19T11:24:28.289Z,124.30
2022-10-19T11:27:24.086Z,127.87
2022-10-19T11:30:17.126Z,127.03
2022-10-19T11:33:01.533Z,124.47
2022-10-19T11:35:49.005Z,124.77
2022-10-19T11:38:44.667Z,123.40
2022-10-19T11:41:36.462Z,120.27
2022-10-19T11:44:32.300Z,122.03
2022-10-19T11:47:39.859Z,121.40
2022-10-19T11:50:32.020Z,118.30
2022-10-19T11:53:17.060Z,119.37
2022-10-19T11:56:05.362Z,116.80
2022-10-19T11:58:58.623Z,117.23
2022-10-19T12:04:50.909Z,114.97
2022-10-19T12:07:38.364Z,114.67
2022-10-19T12:10:29.271Z,116.90
2022-10-19T12:13:09.328Z,117.27
2022-10-19T12:15:46.814Z,117.20
2022-10-19T12:18:26.599Z,119.07
2022-10-19T12:21:13.466Z,119.23
2022-10-19T12:23:50.948Z,115.50
2022-10-19T12:26:28.733Z,118.87
2022-10-19T12:29:13.240Z,117.67
2022-10-19T12:31:50.322Z,118.97
2022-10-19T12:34:38.570Z,118.93
2022-10-19T12:37:20.479Z,120.27
2022-10-19T12:40:05.028Z,119.13
2022-10-19T12:42:52.595Z,121.77
2022-10-19T12:45:39.520Z,121.03
2022-10-19T12:48:37.626Z,120.00
2022-10-19T12:51:16.346Z,120.57
2022-10-19T12:54:13.764Z,118.90
2022-10-19T12:56:56.125Z,120.20
2022-10-19T12:59:37.634Z,123.60
2022-10-19T13:02:29.440Z,123.27
2022-10-19T13:05:07.958Z,121.93
2022-10-19T13:07:45.429Z,122.10
2022-10-19T13:10:26.683Z,121.00
2022-10-19T13:13:04.588Z,123.03
2022-10-19T13:15:56.238Z,122.83
2022-10-19T13:19:19.625Z,121.87
2022-10-19T13:22:11.540Z,122.27
2022-10-19T13:24:45.745Z,120.53
2022-10-19T13:27:45.521Z,124.33
2022-10-19T13:31:04.948Z,124.30
2022-10-19T13:33:58.649Z,120.93
2022-10-19T13:36:45.974Z,124.63
2022-10-19T13:39:35.769Z,126.03
2022-10-19T13:42:34.417Z,124.93
2022-10-19T13:45:29.182Z,122.63
2022-10-19T13:48:22.219Z,124.60
2022-10-19T13:51:10.184Z,123.10
2022-10-19T13:53:50.682Z,120.90
2022-10-19T13:56:56.282Z,127.97
2022-10-19T13:59:59.184Z,125.77
2022-10-19T14:03:13.425Z,124.83
2022-10-19T14:06:26.139Z,127.53
2022-10-19T14:09:36.652Z,124.10
2022-10-19T14:12:20.430Z,125.90
2022-10-19T14:14:56.453Z,127.37
2022-10-19T14:17:35.007Z,125.47
2022-10-19T14:20:33.374Z,121.23
2022-10-19T14:23:30.360Z,117.17
2022-10-19T14:26:14.959Z,121.10
2022-10-19T14:28:52.057Z,117.67
2022-10-19T14:31:37.904Z,122.23
2022-10-19T14:34:14.371Z,123.07
2022-10-19T14:36:52.809Z,118.57
2022-10-19T14:39:41.047Z,117.73
2022-10-19T14:42:32.638Z,120.23
2022-10-19T14:45:16.229Z,119.20
2022-10-19T14:48:21.713Z,118.20
2022-10-19T14:51:01.305Z,118.73
2022-10-19T14:53:50.779Z,119.47
2022-10-19T14:56:44.174Z,120.40
2022-10-19T14:59:28.658Z,119.10
2022-10-19T15:02:12.294Z,119.30
2022-10-19T15:04:48.729Z,121.50
2022-10-19T15:07:27.158Z,121.90
2022-10-19T15:10:16.532Z,118.53
2022-10-19T15:13:14.719Z,118.07
2022-10-19T15:15:57.367Z,119.80
2022-10-19T15:18:50.323Z,116.27
2022-10-19T15:21:30.354Z,121.00
2022-10-19T15:24:31.975Z,120.80
2022-10-19T15:27:21.292Z,124.80
2022-10-19T15:30:06.377Z,121.73
2022-10-19T15:32:45.287Z,122.30
2022-10-19T15:35:44.613Z,121.37
2022-10-19T15:38:38.977Z,117.53
2022-10-19T15:41:30.821Z,118.70
2022-10-19T15:44:09.453Z,119.50
2022-10-19T15:47:19.371Z,123.53
2022-10-19T15:50:02.734Z,117.70
2022-10-19T15:52:42.093Z,120.50
2022-10-19T15:55:22.350Z,119.87
2022-10-19T15:58:04.351Z,118.13
2022-10-19T16:00:55.397Z,122.87
2022-10-19T16:06:51.356Z,128.53
2022-10-19T16:09:31.981Z,130.57
2022-10-19T16:12:13.183Z,125.90
2022-10-19T16:14:50.575Z,123.17
2022-10-19T16:17:36.947Z,125.53
2022-10-19T16:20:26.777Z,126.40
2022-10-19T16:23:01.993Z,125.60
2022-10-19T16:25:40.371Z,120.90
2022-10-19T16:28:24.695Z,118.63
2022-10-19T16:31:06.532Z,119.43
2022-10-19T16:33:42.304Z,117.43
2022-10-19T16:36:20.547Z,118.07
2022-10-19T16:38:57.198Z,114.20
2022-10-19T16:41:33.397Z,116.50
2022-10-19T16:44:12.511Z,114.10
2022-10-19T16:46:52.691Z,117.17
2022-10-19T16:49:40.792Z,115.97
2022-10-19T16:52:20.581Z,119.23
2022-10-19T16:54:59.773Z,120.80
2022-10-19T16:57:35.119Z,116.20
2022-10-19T17:00:13.566Z,118.00
2022-10-19T17:02:48.640Z,117.73
2022-10-19T17:05:23.887Z,122.00
2022-10-19T17:07:58.906Z,119.20
2022-10-19T17:10:36.704Z,121.37
2022-10-19T17:13:12.976Z,122.57
2022-10-19T17:15:47.408Z,119.03
2022-10-19T17:18:28.159Z,120.03
2022-10-19T17:21:10.772Z,116.07
2022-10-19T17:23:51.602Z,113.87
2022-10-19T17:26:30.417Z,114.40
2022-10-19T17:29:07.152Z,110.03
2022-10-19T17:31:43.666Z,114.53
2022-10-19T17:34:23.617Z,111.77
2022-10-19T17:37:12.244Z,117.07
2022-10-19T17:39:47.442Z,114.40
2022-10-19T17:42:26.077Z,118.77
2022-10-19T17:45:01.780Z,112.93
2022-10-19T17:47:38.604Z,116.57
2022-10-19T17:50:15.380Z,116.60
2022-10-19T17:52:49.832Z,114.13
2022-10-19T17:55:28.810Z,112.53
2022-10-19T17:58:11.905Z,114.13
2022-10-19T18:00:46.022Z,116.37
2022-10-19T18:03:23.943Z,114.77
2022-10-19T18:06:09.849Z,115.17
2022-10-19T18:08:51.355Z,116.80
2022-10-19T18:11:27.697Z,116.80
2022-10-19T18:14:05.931Z,117.70
2022-10-19T18:16:46.485Z,118.57
2022-10-19T18:19:26.723Z,120.67
2022-10-19T18:22:01.981Z,120.33
2022-10-19T18:24:38.080Z,119.33
2022-10-19T18:27:13.989Z,123.27
2022-10-19T18:29:51.367Z,123.60
2022-10-19T18:32:25.965Z,121.47
2022-10-19T18:35:00.417Z,124.23
2022-10-19T18:37:37.628Z,121.87
2022-10-19T18:40:13.695Z,124.63
2022-10-19T18:42:48.674Z,121.23
2022-10-19T18:45:29.365Z,121.77
2022-10-19T18:48:04.237Z,124.10
2022-10-19T18:50:38.396Z,121.40
2022-10-19T18:53:12.889Z,120.10
2022-10-19T18:55:47.468Z,120.43
2022-10-19T18:58:22.786Z,122.23
2022-10-19T19:01:08.394Z,120.60
2022-10-19T19:03:44.328Z,120.00
2022-10-19T19:06:20.429Z,122.97
2022-10-19T19:08:55.067Z,121.77
2022-10-19T19:11:33.087Z,122.37
2022-10-19T19:14:11.475Z,128.50
2022-10-19T19:16:48.810Z,125.13
2022-10-19T19:19:25.616Z,124.43
2022-10-19T19:21:59.946Z,126.40
2022-10-19T19:24:37.763Z,129.10
2022-10-19T19:27:11.731Z,132.80
2022-10-19T19:29:46.114Z,130.00
2022-10-19T19:32:22.445Z,127.13
2022-10-19T19:34:56.393Z,134.43
2022-10-19T19:37:33.716Z,135.40
2022-10-19T19:40:08.725Z,135.03
2022-10-19T19:42:43.073Z,133.67
2022-10-19T19:45:17.930Z,133.47
2022-10-19T19:47:53.943Z,134.17
2022-10-19T19:50:27.905Z,135.77
2022-10-19T19:53:03.159Z,137.17
2022-10-19T19:55:40.070Z,137.40
2022-10-19T19:58:13.788Z,137.23
2022-10-19T20:00:47.643Z,137.87
2022-10-19T20:03:22.869Z,140.23
2022-10-19T20:05:57.016Z,138.07
2022-10-19T20:08:30.866Z,135.10
2022-10-19T20:11:08.199Z,136.73
2022-10-19T20:13:42.706Z,137.50
2022-10-19T20:16:18.165Z,135.53
2022-10-19T20:18:55.907Z,136.13
2022-10-19T20:21:29.766Z,133.27
2022-10-19T20:24:04.219Z,135.27
2022-10-19T20:26:38.794Z,133.63
2022-10-19T20:29:12.795Z,134.13
2022-10-19T20:31:46.221Z,132.20
2022-10-19T20:34:23.994Z,131.60
2022-10-19T20:36:58.137Z,132.87
2022-10-19T20:39:35.277Z,130.97
2022-10-19T20:42:10.590Z,128.43
2022-10-19T20:44:44.820Z,132.27
2022-10-19T20:47:18.619Z,126.03
2022-10-19T20:49:54.989Z,125.43
2022-10-19T20:52:29.182Z,122.00
2022-10-19T20:55:10.486Z,123.27
2022-10-19T20:57:44.202Z,124.50
2022-10-19T21:00:22.077Z,122.63
2022-10-19T21:02:56.308Z,117.83
2022-10-19T21:05:31.860Z,120.77
2022-10-19T21:08:05.734Z,119.80
2022-10-19T21:10:38.912Z,120.57
2022-10-19T21:13:13.783Z,112.33
2022-10-19T21:15:47.830Z,115.33
2022-10-19T21:18:22.165Z,118.30
2022-10-19T21:20:57.929Z,117.20
2022-10-19T21:23:32.229Z,113.30
2022-10-19T21:26:05.812Z,112.07
2022-10-19T21:28:39.904Z,115.70
2022-10-19T21:31:14.048Z,115.30
2022-10-19T21:33:48.369Z,112.93
2022-10-19T21:36:26.232Z,110.07
2022-10-19T21:39:00.138Z,110.07
2022-10-19T21:41:34.141Z,114.90
2022-10-19T21:44:07.520Z,110.63
2022-10-19T21:46:41.385Z,109.20
2022-10-19T21:49:15.856Z,104.23
2022-10-19T21:51:53.307Z,106.97
2022-10-19T21:54:30.456Z,109.00
2022-10-19T21:57:04.866Z,108.03
2022-10-19T21:59:39.261Z,107.67
2022-10-19T22:02:13.577Z,110.53
2022-10-19T22:04:48.234Z,109.83
2022-10-19T22:07:24.682Z,110.03
2022-10-19T22:09:59.368Z,106.40
2022-10-19T22:12:33.719Z,110.80
2022-10-19T22:15:08.635Z,109.50
2022-10-19T22:17:42.941Z,110.47
2022-10-19T22:20:17.849Z,109.03
2022-10-19T22:22:55.074Z,111.40
2022-10-19T22:25:29.649Z,113.03
2022-10-19T22:28:04.611Z,111.20
2022-10-19T22:30:38.784Z,113.33
2022-10-19T22:33:13.132Z,111.00
2022-10-19T22:35:47.075Z,114.20
2022-10-19T22:38:23.609Z,113.53
2022-10-19T22:41:48.119Z,111.33
2022-10-19T22:44:37.729Z,109.67
2022-10-19T22:47:14.320Z,109.50
2022-10-19T22:49:48.883Z,108.80
2022-10-19T22:52:23.184Z,106.00
2022-10-19T22:54:59.616Z,104.87
2022-10-19T22:57:34.058Z,105.07
2022-10-19T23:00:08.554Z,109.00
2022-10-19T23:02:43.095Z,105.67
2022-10-19T23:05:18.320Z,103.57
2022-10-19T23:07:52.852Z,103.73
2022-10-19T23:10:29.305Z,105.37
2022-10-19T23:13:03.860Z,104.70
2022-10-19T23:15:41.706Z,103.93
2022-10-19T23:18:18.344Z,107.97
2022-10-19T23:20:59.794Z,107.63
2022-10-19T23:23:56.122Z,102.80
2022-10-19T23:26:32.554Z,104.10
2022-10-19T23:29:07.455Z,100.53
2022-10-19T23:31:42.200Z,101.47
2022-10-19T23:34:17.281Z,100.97
2022-10-19T23:36:51.949Z,99.37
2022-10-19T23:39:27.481Z,100.07
2022-10-19T23:42:04.738Z,97.13
2022-10-19T23:44:39.862Z,101.30
2022-10-19T23:47:14.019Z,102.83
2022-10-19T23:49:48.867Z,98.33
2022-10-19T23:52:24.052Z,97.93
2022-10-19T23:54:58.299Z,93.73
2022-10-19T23:57:35.096Z,90.83
